Time;durP1;ratioP1;P1;durP2;ratioP2;P2;SDS_P1;SDS_P2;PMS_P1;PMS_P2;Temp;Humidity;BMP_temperature;BMP_pressure;BME280_temperature;BME280_humidity;BME280_pressure;Samples;Min_cycle;Max_cycle;Signal;HPM_P1;HPM_P2
2023/12/15 00:01:39;;;;;;;;;;;6.80;99.90;;;;;;5064832;28;19991;-67
2023/12/15 00:04:05;;;;;;;;;;;6.80;99.90;;;;;;5064164;28;19976;-66
2023/12/15 00:06:33;;;;;;;;;;;6.80;99.90;;;;;;5064066;28;20638;-68
2023/12/15 00:09:00;;;;;;;;;;;6.80;99.90;;;;;;5064134;28;20048;-67
2023/12/15 00:11:26;;;;;;;;;;;6.80;99.90;;;;;;5064453;28;19979;-66
2023/12/15 00:13:53;;;;;;;;;;;6.80;99.90;;;;;;5064081;28;20358;-67
2023/12/15 00:16:19;;;;;;;;;;;6.70;99.90;;;;;;5064638;28;20468;-67
2023/12/15 00:18:46;;;;;;;;;;;6.80;99.90;;;;;;5065654;28;19999;-67
2023/12/15 00:21:12;;;;;;;;;;;6.70;99.90;;;;;;5066112;28;19998;-67
2023/12/15 00:23:40;;;;;;;;;;;6.70;99.90;;;;;;5064902;28;20022;-67
2023/12/15 00:26:07;;;;;;;;;;;6.70;99.90;;;;;;5066940;28;19987;-67
2023/12/15 00:28:33;;;;;;;;;;;6.70;99.90;;;;;;5065851;28;20044;-68
2023/12/15 00:31:00;;;;;;;;;;;6.70;99.90;;;;;;5065854;28;20003;-68
2023/12/15 00:33:26;;;;;;;;;;;6.70;99.90;;;;;;5066302;28;19979;-67
2023/12/15 00:35:53;;;;;;;;;;;6.70;99.90;;;;;;5066309;28;19990;-67
2023/12/15 00:38:19;;;;;;;;;;;6.70;99.90;;;;;;5064379;28;19999;-67
2023/12/15 00:40:47;;;;;;;;;;;6.70;99.90;;;;;;5066777;28;20649;-66
2023/12/15 00:43:14;;;;;;;;;;;6.70;99.90;;;;;;5064116;28;19995;-67
2023/12/15 00:45:41;;;;;;;;;;;6.60;99.90;;;;;;5064954;28;20078;-67
2023/12/15 00:48:08;;;;;;;;;;;6.70;99.90;;;;;;5066450;28;19995;-67
2023/12/15 00:50:35;;;;;;;;;;;6.70;99.90;;;;;;5065363;28;19980;-66
2023/12/15 00:53:01;;;;;;;;;;;6.60;99.90;;;;;;5065535;28;20695;-67
2023/12/15 00:55:28;;;;;;;;;;;6.60;99.90;;;;;;5065448;28;19980;-67
2023/12/15 00:57:55;;;;;;;;;;;6.70;99.90;;;;;;5065392;28;20002;-66
2023/12/15 01:00:22;;;;;;;;;;;6.60;99.90;;;;;;5064411;28;19986;-67
2023/12/15 01:02:49;;;;;;;;;;;6.60;99.90;;;;;;5061260;28;19992;-68
2023/12/15 01:05:15;;;;;;;;;;;6.60;99.90;;;;;;5062796;28;19987;-67
2023/12/15 01:07:42;;;;;;;;;;;6.60;99.90;;;;;;5063921;28;20476;-67
2023/12/15 01:10:09;;;;;;;;;;;6.60;99.90;;;;;;5058830;28;20090;-66
2023/12/15 01:12:35;;;;;;;;;;;6.60;99.90;;;;;;5066850;28;19982;-67
2023/12/15 01:15:03;;;;;;;;;;;6.60;99.90;;;;;;5062521;28;20438;-67
2023/12/15 01:17:30;;;;;;;;;;;6.60;99.90;;;;;;5062795;28;19995;-67
2023/12/15 01:19:56;;;;;;;;;;;6.60;99.90;;;;;;5063095;28;19979;-67
2023/12/15 01:22:23;;;;;;;;;;;6.60;99.90;;;;;;5064936;28;19998;-67
2023/12/15 01:24:49;;;;;;;;;;;6.60;99.90;;;;;;5064790;28;19983;-67
2023/12/15 01:27:16;;;;;;;;;;;6.60;99.90;;;;;;5066089;28;20048;-66
2023/12/15 01:29:42;;;;;;;;;;;6.60;99.90;;;;;;5064460;28;19982;-67
2023/12/15 01:32:10;;;;;;;;;;;6.60;99.90;;;;;;5066950;28;19999;-66
2023/12/15 01:34:36;;;;;;;;;;;6.60;99.90;;;;;;5067011;28;20437;-66
2023/12/15 01:37:03;;;;;;;;;;;6.60;99.90;;;;;;5071594;28;19975;-66
2023/12/15 01:39:30;;;;;;;;;;;6.60;99.90;;;;;;5068114;28;20475;-67
2023/12/15 01:41:56;;;;;;;;;;;6.50;99.90;;;;;;5070049;28;19979;-67
2023/12/15 01:44:23;;;;;;;;;;;6.50;99.90;;;;;;5067887;28;20003;-67
2023/12/15 01:46:49;;;;;;;;;;;6.50;99.90;;;;;;5068700;28;20002;-67
2023/12/15 01:49:17;;;;;;;;;;;6.50;99.90;;;;;;5067105;28;20644;-67
2023/12/15 01:51:44;;;;;;;;;;;6.50;99.90;;;;;;5068774;28;19982;-66
2023/12/15 01:54:10;;;;;;;;;;;6.50;99.90;;;;;;5068881;28;19986;-67
2023/12/15 01:56:37;;;;;;;;;;;6.50;99.90;;;;;;5068624;28;19975;-66
2023/12/15 01:59:03;;;;;;;;;;;6.50;99.90;;;;;;5068459;28;20415;-68
2023/12/15 02:01:30;;;;;;;;;;;6.50;99.90;;;;;;5068206;28;20003;-68
2023/12/15 02:03:56;;;;;;;;;;;6.50;99.90;;;;;;5068407;28;19991;-68
2023/12/15 02:06:24;;;;;;;;;;;6.50;99.90;;;;;;5067245;28;20029;-67
2023/12/15 02:08:51;;;;;;;;;;;6.50;99.90;;;;;;5068613;28;19995;-67
2023/12/15 02:11:17;;;;;;;;;;;6.50;99.90;;;;;;5066907;28;20620;-67
2023/12/15 02:13:44;;;;;;;;;;;6.50;99.90;;;;;;5067116;28;20053;-67
2023/12/15 02:16:10;;;;;;;;;;;6.50;99.90;;;;;;5069083;28;19995;-66
2023/12/15 02:18:37;;;;;;;;;;;6.50;99.90;;;;;;5066940;28;19991;-66
2023/12/15 02:21:03;;;;;;;;;;;6.50;99.90;;;;;;5067156;28;20349;-66
2023/12/15 02:23:31;;;;;;;;;;;6.50;99.90;;;;;;5067461;28;19995;-67
2023/12/15 02:25:58;;;;;;;;;;;6.50;99.90;;;;;;5069291;28;19976;-67
2023/12/15 02:28:24;;;;;;;;;;;6.50;99.90;;;;;;5066997;28;20439;-66
2023/12/15 02:30:51;;;;;;;;;;;6.50;99.90;;;;;;5066882;28;19991;-67
2023/12/15 02:33:17;;;;;;;;;;;6.40;99.90;;;;;;5069347;28;19983;-66
2023/12/15 02:35:47;;;;;;;;;;;6.40;99.90;;;;;;5067477;28;19984;-66
2023/12/15 02:38:18;;;;;;;;;;;6.40;99.90;;;;;;5066761;28;20049;-67
2023/12/15 02:40:46;;;;;;;;;;;6.40;99.90;;;;;;5065858;28;19983;-66
2023/12/15 02:43:12;;;;;;;;;;;6.40;99.90;;;;;;5068869;28;20014;-67
2023/12/15 02:45:39;;;;;;;;;;;6.40;99.90;;;;;;5065816;28;19999;-68
2023/12/15 02:48:05;;;;;;;;;;;6.40;99.90;;;;;;5068356;28;19991;-68
2023/12/15 02:50:32;;;;;;;;;;;6.40;99.90;;;;;;5067571;28;20016;-67
2023/12/15 02:52:58;;;;;;;;;;;6.40;99.90;;;;;;5067263;28;20699;-67
2023/12/15 02:55:25;;;;;;;;;;;6.40;99.90;;;;;;5064170;28;19987;-67
2023/12/15 02:57:53;;;;;;;;;;;6.40;99.90;;;;;;5065575;28;20065;-67
2023/12/15 03:00:19;;;;;;;;;;;6.40;99.90;;;;;;5067034;28;20007;-66
2023/12/15 03:02:46;;;;;;;;;;;6.40;99.90;;;;;;5063999;28;19979;-67
2023/12/15 03:05:12;;;;;;;;;;;6.40;99.90;;;;;;5069474;28;19987;-69
2023/12/15 03:07:39;;;;;;;;;;;6.40;99.90;;;;;;5065590;28;20077;-67
2023/12/15 03:10:06;;;;;;;;;;;6.40;99.90;;;;;;5065684;28;19986;-67
2023/12/15 03:12:33;;;;;;;;;;;6.40;99.90;;;;;;5066652;28;19984;-67
2023/12/15 03:15:01;;;;;;;;;;;6.40;99.90;;;;;;5063868;28;20066;-67
2023/12/15 03:17:30;;;;;;;;;;;6.40;99.90;;;;;;5063726;28;20044;-67
2023/12/15 03:19:56;;;;;;;;;;;6.40;99.90;;;;;;5064906;28;20019;-66
2023/12/15 03:22:23;;;;;;;;;;;6.30;99.90;;;;;;5067619;28;19986;-67
2023/12/15 03:24:49;;;;;;;;;;;6.40;99.90;;;;;;5064747;28;19995;-67
2023/12/15 03:27:16;;;;;;;;;;;6.30;99.90;;;;;;5068137;28;19999;-67
2023/12/15 03:29:42;;;;;;;;;;;6.30;99.90;;;;;;5064701;28;19980;-67
2023/12/15 03:32:10;;;;;;;;;;;6.30;99.90;;;;;;5068453;28;20916;-67
2023/12/15 03:34:37;;;;;;;;;;;6.30;99.90;;;;;;5064375;28;20113;-67
2023/12/15 03:37:03;;;;;;;;;;;6.40;99.90;;;;;;5066080;28;19983;-67
2023/12/15 03:39:30;;;;;;;;;;;6.40;99.90;;;;;;5065501;28;20487;-68
2023/12/15 03:41:56;;;;;;;;;;;6.30;99.90;;;;;;5066234;28;19984;-67
2023/12/15 03:44:23;;;;;;;;;;;6.30;99.90;;;;;;5063528;28;20019;-67
2023/12/15 03:46:49;;;;;;;;;;;6.30;99.90;;;;;;5064406;28;20380;-67
2023/12/15 03:49:17;;;;;;;;;;;6.30;99.90;;;;;;5065987;28;20049;-68
2023/12/15 03:51:44;;;;;;;;;;;6.30;99.90;;;;;;5065901;28;19982;-66
2023/12/15 03:54:10;;;;;;;;;;;6.30;99.90;;;;;;5067626;28;19985;-66
2023/12/15 03:56:37;;;;;;;;;;;6.30;99.90;;;;;;5066171;28;20009;-66
2023/12/15 03:59:03;;;;;;;;;;;6.30;99.90;;;;;;5064218;28;19992;-68
2023/12/15 04:01:30;;;;;;;;;;;6.30;99.90;;;;;;5063086;28;19999;-67
2023/12/15 04:03:57;;;;;;;;;;;6.30;99.90;;;;;;5064580;28;19992;-67
2023/12/15 04:06:25;;;;;;;;;;;6.30;99.90;;;;;;5063753;28;19980;-67
2023/12/15 04:08:51;;;;;;;;;;;6.30;99.90;;;;;;5064273;28;20547;-67
2023/12/15 04:11:18;;;;;;;;;;;6.30;99.90;;;;;;5065148;28;19984;-67
2023/12/15 04:13:45;;;;;;;;;;;6.30;99.90;;;;;;5065998;28;19978;-67
2023/12/15 04:16:11;;;;;;;;;;;6.30;99.90;;;;;;5067050;28;19990;-68
2023/12/15 04:18:38;;;;;;;;;;;6.20;99.90;;;;;;5064790;28;20029;-68
2023/12/15 04:21:05;;;;;;;;;;;6.20;99.90;;;;;;5064710;28;20021;-67
2023/12/15 04:23:32;;;;;;;;;;;6.30;99.90;;;;;;5064327;28;20006;-67
2023/12/15 04:25:59;;;;;;;;;;;6.20;99.90;;;;;;5066515;28;19986;-66
2023/12/15 04:28:26;;;;;;;;;;;6.30;99.90;;;;;;5064142;28;20007;-66
2023/12/15 04:30:52;;;;;;;;;;;6.20;99.90;;;;;;5064125;28;20019;-68
2023/12/15 04:33:19;;;;;;;;;;;6.30;99.90;;;;;;5067285;28;20057;-67
2023/12/15 04:35:45;;;;;;;;;;;6.20;99.90;;;;;;5065792;28;20441;-66
2023/12/15 04:38:12;;;;;;;;;;;6.20;99.90;;;;;;5066685;28;19987;-67
2023/12/15 04:40:40;;;;;;;;;;;6.20;99.90;;;;;;5066529;28;20346;-66
2023/12/15 04:43:07;;;;;;;;;;;6.20;99.90;;;;;;5067436;28;19983;-66
2023/12/15 04:45:33;;;;;;;;;;;6.20;99.90;;;;;;5064774;28;20053;-67
2023/12/15 04:48:00;;;;;;;;;;;6.20;99.90;;;;;;5064709;28;20031;-67
2023/12/15 04:50:27;;;;;;;;;;;6.20;99.90;;;;;;5066164;28;19987;-67
2023/12/15 04:52:53;;;;;;;;;;;6.20;99.90;;;;;;5064470;28;19983;-67
2023/12/15 04:55:20;;;;;;;;;;;6.20;99.90;;;;;;5067484;28;19984;-67
2023/12/15 04:57:48;;;;;;;;;;;6.20;99.90;;;;;;5064914;28;20001;-68
2023/12/15 05:00:15;;;;;;;;;;;6.20;99.90;;;;;;5063386;28;19986;-66
2023/12/15 05:02:41;;;;;;;;;;;6.20;99.90;;;;;;5062657;28;19979;-67
2023/12/15 05:05:08;;;;;;;;;;;6.20;99.90;;;;;;5066865;28;20133;-66
2023/12/15 05:07:35;;;;;;;;;;;6.10;99.90;;;;;;5064242;28;19991;-67
2023/12/15 05:10:01;;;;;;;;;;;6.20;99.90;;;;;;5067731;28;20490;-68
2023/12/15 05:12:28;;;;;;;;;;;6.20;99.90;;;;;;5070299;28;19979;-67
2023/12/15 05:14:55;;;;;;;;;;;6.20;99.90;;;;;;5068550;28;20444;-66
2023/12/15 05:17:22;;;;;;;;;;;6.20;99.90;;;;;;5067703;28;20003;-67
2023/12/15 05:19:49;;;;;;;;;;;6.20;99.90;;;;;;5067232;28;20533;-67
2023/12/15 05:22:15;;;;;;;;;;;6.20;99.90;;;;;;5069404;28;20706;-66
2023/12/15 05:24:43;;;;;;;;;;;6.20;99.90;;;;;;5068758;28;20077;-68
2023/12/15 05:27:09;;;;;;;;;;;6.20;99.90;;;;;;5071084;28;19983;-67
2023/12/15 05:29:42;;;;;;;;;;;6.10;99.90;;;;;;5066951;28;19986;-66
2023/12/15 05:32:10;;;;;;;;;;;6.10;99.90;;;;;;5069727;28;20002;-67
2023/12/15 05:34:36;;;;;;;;;;;6.20;99.90;;;;;;5067745;28;19979;-67
2023/12/15 05:37:03;;;;;;;;;;;6.10;99.90;;;;;;5069505;28;19979;-67
2023/12/15 05:39:30;;;;;;;;;;;6.10;99.90;;;;;;5069202;28;19984;-67
2023/12/15 05:41:56;;;;;;;;;;;6.10;99.90;;;;;;5069779;28;19987;-67
2023/12/15 05:44:23;;;;;;;;;;;6.10;99.90;;;;;;5069124;28;19999;-67
2023/12/15 05:46:50;;;;;;;;;;;6.20;99.90;;;;;;5067601;28;20017;-66
2023/12/15 05:49:18;;;;;;;;;;;6.10;99.90;;;;;;5066457;28;20415;-67
2023/12/15 05:51:47;;;;;;;;;;;6.10;99.90;;;;;;5067923;28;19987;-66
2023/12/15 05:54:13;;;;;;;;;;;6.10;99.90;;;;;;5071182;28;19990;-65
2023/12/15 05:56:40;;;;;;;;;;;6.10;99.90;;;;;;5070251;28;19987;-67
2023/12/15 05:59:06;;;;;;;;;;;6.10;99.90;;;;;;5068834;28;20086;-68
2023/12/15 06:01:33;;;;;;;;;;;6.10;99.90;;;;;;5066323;28;20413;-68
2023/12/15 06:04:00;;;;;;;;;;;6.10;99.90;;;;;;5066073;28;19997;-67
2023/12/15 06:06:28;;;;;;;;;;;6.10;99.90;;;;;;5065706;28;19979;-67
2023/12/15 06:08:54;;;;;;;;;;;6.10;99.90;;;;;;5065565;28;19995;-66
2023/12/15 06:11:21;;;;;;;;;;;6.10;99.90;;;;;;5066260;28;20514;-66
2023/12/15 06:13:47;;;;;;;;;;;6.10;99.90;;;;;;5065171;28;19979;-67
2023/12/15 06:16:17;;;;;;;;;;;6.10;99.90;;;;;;5065096;28;19996;-67
2023/12/15 06:18:44;;;;;;;;;;;6.10;99.90;;;;;;5065807;28;19991;-67
2023/12/15 06:21:19;;;;;;;;;;;6.10;99.90;;;;;;5068036;28;20353;-68
2023/12/15 06:23:47;;;;;;;;;;;6.10;99.90;;;;;;5067210;28;20590;-67
2023/12/15 06:26:17;;;;;;;;;;;6.10;99.90;;;;;;5068938;28;20037;-67
2023/12/15 06:28:43;;;;;;;;;;;6.10;99.90;;;;;;5063269;28;20372;-67
2023/12/15 06:31:10;;;;;;;;;;;6.10;99.90;;;;;;5067285;28;19999;-68
2023/12/15 06:33:36;;;;;;;;;;;6.10;99.90;;;;;;5068219;28;19979;-67
2023/12/15 06:36:03;;;;;;;;;;;6.10;99.90;;;;;;5068546;28;19987;-67
2023/12/15 06:38:29;;;;;;;;;;;6.10;99.90;;;;;;5067639;28;19995;-67
2023/12/15 06:40:58;;;;;;;;;;;6.10;99.90;;;;;;5066316;28;20867;-67
2023/12/15 06:43:24;;;;;;;;;;;6.00;99.90;;;;;;5066932;28;20037;-66
2023/12/15 06:45:51;;;;;;;;;;;6.10;99.90;;;;;;5064499;28;20007;-66
2023/12/15 06:48:17;;;;;;;;;;;6.10;99.90;;;;;;5066658;28;20480;-67
2023/12/15 06:50:44;;;;;;;;;;;6.00;99.90;;;;;;5061917;28;19980;-66
2023/12/15 06:53:10;;;;;;;;;;;6.10;99.90;;;;;;5065061;28;19976;-68
2023/12/15 06:55:37;;;;;;;;;;;6.10;99.90;;;;;;5067119;28;19980;-66
2023/12/15 06:58:05;;;;;;;;;;;6.00;99.90;;;;;;5067783;28;20396;-66
2023/12/15 07:00:32;;;;;;;;;;;6.00;99.90;;;;;;5065007;28;19999;-66
2023/12/15 07:02:58;;;;;;;;;;;6.00;99.90;;;;;;5002624;28;1724476;-68
2023/12/15 07:05:25;;;;;;;;;;;6.00;99.90;;;;;;5065809;28;19995;-66
2023/12/15 07:07:51;;;;;;;;;;;6.00;99.90;;;;;;5065133;28;20006;-66
2023/12/15 07:10:18;;;;;;;;;;;6.10;99.90;;;;;;5063963;28;20021;-68
2023/12/15 07:12:44;;;;;;;;;;;6.00;99.90;;;;;;5066531;28;20464;-66
2023/12/15 07:15:12;;;;;;;;;;;6.00;99.90;;;;;;5064639;28;19975;-67
2023/12/15 07:17:39;;;;;;;;;;;6.00;99.90;;;;;;5067524;28;20002;-67
2023/12/15 07:20:06;;;;;;;;;;;6.00;99.90;;;;;;5065751;28;19983;-67
2023/12/15 07:22:33;;;;;;;;;;;6.00;99.90;;;;;;5066626;28;20014;-68
2023/12/15 07:24:59;;;;;;;;;;;6.10;99.90;;;;;;5068666;28;20003;-67
2023/12/15 07:27:26;;;;;;;;;;;6.00;99.90;;;;;;5067843;28;20059;-66
2023/12/15 07:29:53;;;;;;;;;;;6.00;99.90;;;;;;5066863;28;19980;-67
2023/12/15 07:32:21;;;;;;;;;;;6.00;99.90;;;;;;5067528;28;20088;-67
2023/12/15 07:34:47;;;;;;;;;;;6.00;99.90;;;;;;5066241;28;20002;-67
2023/12/15 07:37:14;;;;;;;;;;;6.00;99.90;;;;;;5065204;28;19983;-66
2023/12/15 07:39:40;;;;;;;;;;;6.00;99.90;;;;;;5064154;28;19983;-67
2023/12/15 07:42:07;;;;;;;;;;;6.00;99.90;;;;;;5066103;28;20033;-66
2023/12/15 07:44:33;;;;;;;;;;;6.00;99.90;;;;;;5067242;28;20041;-67
2023/12/15 07:47:00;;;;;;;;;;;6.00;99.90;;;;;;5066287;28;19995;-67
2023/12/15 07:49:28;;;;;;;;;;;6.00;99.90;;;;;;5064777;28;20391;-67
2023/12/15 07:51:56;;;;;;;;;;;6.00;99.90;;;;;;5065056;28;19986;-67
2023/12/15 07:54:23;;;;;;;;;;;6.00;99.90;;;;;;5064888;28;19987;-67
2023/12/15 07:56:49;;;;;;;;;;;6.00;99.90;;;;;;5064605;28;19979;-67
2023/12/15 07:59:16;;;;;;;;;;;6.00;99.90;;;;;;5063345;28;20006;-67
2023/12/15 08:01:42;;;;;;;;;;;6.00;99.90;;;;;;5061759;28;20006;-67
2023/12/15 08:04:10;;;;;;;;;;;6.00;99.90;;;;;;5065126;28;19988;-67
2023/12/15 08:06:38;;;;;;;;;;;6.00;99.90;;;;;;5067494;28;20100;-66
2023/12/15 08:09:04;;;;;;;;;;;6.00;99.90;;;;;;5061709;28;20440;-67
2023/12/15 08:11:32;;;;;;;;;;;6.00;99.90;;;;;;5067599;28;20352;-67
2023/12/15 08:13:59;;;;;;;;;;;6.00;99.90;;;;;;5060779;28;21087;-67
2023/12/15 08:16:25;;;;;;;;;;;6.10;99.90;;;;;;5063622;28;19995;-66
2023/12/15 08:18:52;;;;;;;;;;;6.00;99.90;;;;;;5064581;28;20760;-67
2023/12/15 08:21:18;;;;;;;;;;;6.00;99.90;;;;;;5067880;28;20524;-66
2023/12/15 08:23:46;;;;;;;;;;;6.00;99.90;;;;;;5065358;28;20494;-66
2023/12/15 08:26:20;;;;;;;;;;;6.00;99.90;;;;;;5065053;28;20030;-66
2023/12/15 08:28:47;;;;;;;;;;;6.00;99.90;;;;;;5060217;28;20060;-69
2023/12/15 08:31:13;;;;;;;;;;;6.00;99.90;;;;;;5065569;28;20006;-66
2023/12/15 08:33:40;;;;;;;;;;;6.00;99.90;;;;;;5069128;28;19975;-67
2023/12/15 08:36:08;;;;;;;;;;;6.00;99.90;;;;;;5064991;28;20440;-66
2023/12/15 08:38:34;;;;;;;;;;;6.00;99.90;;;;;;5068467;28;20532;-67
2023/12/15 08:41:02;;;;;;;;;;;6.00;99.90;;;;;;5065162;28;19975;-68
2023/12/15 08:43:29;;;;;;;;;;;6.10;99.90;;;;;;5069329;28;19979;-66
2023/12/15 08:45:56;;;;;;;;;;;6.00;99.90;;;;;;5063591;28;20887;-66
2023/12/15 08:48:22;;;;;;;;;;;6.00;99.90;;;;;;5068121;28;19995;-68
2023/12/15 08:50:49;;;;;;;;;;;6.10;99.90;;;;;;5063851;28;19976;-67
2023/12/15 08:53:16;;;;;;;;;;;6.10;99.90;;;;;;5061179;28;20110;-66
2023/12/15 08:55:43;;;;;;;;;;;6.10;99.90;;;;;;5068681;28;20002;-66
2023/12/15 08:58:10;;;;;;;;;;;6.00;99.90;;;;;;5065696;28;20003;-67
2023/12/15 09:00:37;;;;;;;;;;;6.10;99.90;;;;;;5063567;28;19999;-67
2023/12/15 09:03:04;;;;;;;;;;;6.10;99.90;;;;;;5064836;28;20685;-68
2023/12/15 09:05:32;;;;;;;;;;;6.10;99.90;;;;;;5067782;28;19992;-67
2023/12/15 09:07:58;;;;;;;;;;;6.10;99.90;;;;;;5064574;28;19998;-66
2023/12/15 09:10:25;;;;;;;;;;;6.10;99.90;;;;;;5061791;28;19982;-66
2023/12/15 09:12:52;;;;;;;;;;;6.10;99.90;;;;;;5065273;28;19983;-67
2023/12/15 09:15:20;;;;;;;;;;;6.10;99.90;;;;;;5060722;28;20070;-67
2023/12/15 09:17:47;;;;;;;;;;;6.10;99.90;;;;;;5067778;28;19991;-66
2023/12/15 09:20:14;;;;;;;;;;;6.10;99.90;;;;;;5065183;28;19986;-67
2023/12/15 09:22:40;;;;;;;;;;;6.10;99.90;;;;;;5066648;28;19976;-66
2023/12/15 09:25:08;;;;;;;;;;;6.10;99.90;;;;;;5067392;28;20003;-67
2023/12/15 09:27:34;;;;;;;;;;;6.10;99.90;;;;;;5065777;28;20091;-67
2023/12/15 09:30:01;;;;;;;;;;;6.20;99.90;;;;;;5064482;28;19979;-67
2023/12/15 09:32:28;;;;;;;;;;;6.10;99.90;;;;;;5064195;28;19991;-67
2023/12/15 09:34:55;;;;;;;;;;;6.20;99.90;;;;;;5064508;28;20107;-67
2023/12/15 09:37:22;;;;;;;;;;;6.20;99.90;;;;;;5066704;28;20125;-67
2023/12/15 09:39:49;;;;;;;;;;;6.20;99.90;;;;;;5065450;28;19976;-66
2023/12/15 09:42:15;;;;;;;;;;;6.20;99.90;;;;;;5064180;28;20353;-66
2023/12/15 09:44:42;;;;;;;;;;;6.20;99.90;;;;;;5062726;28;19982;-67
2023/12/15 09:47:08;;;;;;;;;;;6.20;99.90;;;;;;5063137;28;20007;-67
2023/12/15 09:49:37;;;;;;;;;;;6.20;99.90;;;;;;5065669;28;20010;-67
2023/12/15 09:52:05;;;;;;;;;;;6.20;99.90;;;;;;5062209;28;20330;-67
2023/12/15 09:54:34;;;;;;;;;;;6.30;99.90;;;;;;5066030;28;20029;-66
2023/12/15 09:57:00;;;;;;;;;;;6.30;99.90;;;;;;5066579;28;20018;-66
2023/12/15 09:59:27;;;;;;;;;;;6.30;99.90;;;;;;5070589;28;19979;-67
2023/12/15 10:01:54;;;;;;;;;;;6.30;99.90;;;;;;5069338;28;19998;-67
2023/12/15 10:04:21;;;;;;;;;;;6.30;99.90;;;;;;5066661;28;19983;-67
2023/12/15 10:06:48;;;;;;;;;;;6.30;99.90;;;;;;5066813;28;20000;-67
2023/12/15 10:09:15;;;;;;;;;;;6.40;99.90;;;;;;5065247;28;20399;-68
2023/12/15 10:11:44;;;;;;;;;;;6.40;99.90;;;;;;5067375;28;20442;-67
2023/12/15 10:14:11;;;;;;;;;;;6.40;99.90;;;;;;5066634;28;19986;-67
2023/12/15 10:16:38;;;;;;;;;;;6.40;99.90;;;;;;5068413;28;20751;-67
2023/12/15 10:19:05;;;;;;;;;;;6.40;99.90;;;;;;5066743;28;19998;-67
2023/12/15 10:21:32;;;;;;;;;;;6.40;99.90;;;;;;5067596;28;19986;-66
2023/12/15 10:24:00;;;;;;;;;;;6.40;99.90;;;;;;5069580;28;20066;-67
2023/12/15 10:26:27;;;;;;;;;;;6.40;99.90;;;;;;5067452;28;20094;-67
2023/12/15 10:28:54;;;;;;;;;;;6.40;99.90;;;;;;5068028;28;19991;-67
2023/12/15 10:31:21;;;;;;;;;;;6.40;99.90;;;;;;5068231;28;20118;-67
2023/12/15 10:33:47;;;;;;;;;;;6.40;99.90;;;;;;5068163;28;19976;-67
2023/12/15 10:36:14;;;;;;;;;;;6.40;99.90;;;;;;5065957;28;19983;-67
2023/12/15 10:38:41;;;;;;;;;;;6.40;99.90;;;;;;5069158;28;20098;-67
2023/12/15 10:41:10;;;;;;;;;;;6.50;99.90;;;;;;5067104;28;20019;-66
2023/12/15 10:43:37;;;;;;;;;;;6.50;99.90;;;;;;5068624;28;19975;-66
2023/12/15 10:46:04;;;;;;;;;;;6.50;99.90;;;;;;5068307;28;20049;-68
2023/12/15 10:48:31;;;;;;;;;;;6.50;99.90;;;;;;5066348;28;19991;-67
2023/12/15 10:50:58;;;;;;;;;;;6.50;99.90;;;;;;5067644;28;19979;-67
2023/12/15 10:53:25;;;;;;;;;;;6.50;99.90;;;;;;5066752;28;19982;-67
2023/12/15 10:55:52;;;;;;;;;;;6.50;99.90;;;;;;5069233;28;20050;-66
2023/12/15 10:58:20;;;;;;;;;;;6.50;99.90;;;;;;5068428;28;20002;-67
2023/12/15 11:00:47;;;;;;;;;;;6.50;99.90;;;;;;5066761;28;20074;-66
2023/12/15 11:03:14;;;;;;;;;;;6.60;99.90;;;;;;5067950;28;20516;-67
2023/12/15 11:05:40;;;;;;;;;;;6.60;99.90;;;;;;5066410;28;19995;-67
2023/12/15 11:08:07;;;;;;;;;;;6.60;99.90;;;;;;5064044;28;20417;-67
2023/12/15 11:10:35;;;;;;;;;;;6.60;99.90;;;;;;5066708;28;19979;-68
2023/12/15 11:13:02;;;;;;;;;;;6.50;99.90;;;;;;5067808;28;20085;-67
2023/12/15 11:15:30;;;;;;;;;;;6.60;99.90;;;;;;5064309;28;19995;-67
2023/12/15 11:17:58;;;;;;;;;;;6.60;99.90;;;;;;5065389;28;19991;-67
2023/12/15 11:20:41;;;;;;;;;;;6.60;99.90;;;;;;5065984;28;19979;-66
2023/12/15 11:23:08;;;;;;;;;;;6.60;99.90;;;;;;5067767;28;19983;-67
2023/12/15 11:25:36;;;;;;;;;;;6.60;99.90;;;;;;5067815;28;19995;-66
2023/12/15 11:28:07;;;;;;;;;;;6.70;99.90;;;;;;5067889;28;20481;-66
2023/12/15 11:30:37;;;;;;;;;;;6.70;99.90;;;;;;5066695;28;19992;-67
2023/12/15 11:33:23;;;;;;;;;;;6.70;99.90;;;;;;5068261;28;19982;-67
2023/12/15 11:35:52;;;;;;;;;;;6.70;99.90;;;;;;5063005;28;20075;-67
2023/12/15 11:38:19;;;;;;;;;;;6.70;99.90;;;;;;5066848;28;19995;-67
2023/12/15 11:40:46;;;;;;;;;;;6.70;99.90;;;;;;5065753;28;20021;-67
2023/12/15 11:43:13;;;;;;;;;;;6.70;99.90;;;;;;5068506;28;19982;-68
2023/12/15 11:45:41;;;;;;;;;;;6.70;99.90;;;;;;5060973;28;20002;-66
2023/12/15 11:48:09;;;;;;;;;;;6.70;99.90;;;;;;5066941;28;19991;-67
2023/12/15 11:50:35;;;;;;;;;;;6.70;99.90;;;;;;5066901;28;20052;-67
2023/12/15 11:53:06;;;;;;;;;;;6.80;99.90;;;;;;5066115;28;19999;-68
2023/12/15 11:55:32;;;;;;;;;;;6.70;99.90;;;;;;5066201;28;19983;-67
2023/12/15 11:57:59;;;;;;;;;;;6.70;99.90;;;;;;5066611;28;20044;-68
2023/12/15 12:00:26;;;;;;;;;;;6.80;99.90;;;;;;5063036;28;19979;-66
2023/12/15 12:02:53;;;;;;;;;;;6.80;99.90;;;;;;5068147;28;20023;-67
2023/12/15 12:05:19;;;;;;;;;;;6.80;99.90;;;;;;5066872;28;20022;-68
2023/12/15 12:07:46;;;;;;;;;;;6.80;99.90;;;;;;5067567;28;20015;-67
2023/12/15 12:10:12;;;;;;;;;;;6.80;99.90;;;;;;5064179;28;19980;-67
2023/12/15 12:12:39;;;;;;;;;;;6.80;99.90;;;;;;5067337;28;19982;-67
2023/12/15 12:15:07;;;;;;;;;;;6.80;99.90;;;;;;5063322;28;19998;-69
2023/12/15 12:17:33;;;;;;;;;;;6.90;99.90;;;;;;5065705;28;20002;-67
2023/12/15 12:20:06;;;;;;;;;;;6.80;99.90;;;;;;5066454;28;19983;-67
2023/12/15 12:22:33;;;;;;;;;;;6.80;99.90;;;;;;5066102;28;20391;-67
2023/12/15 12:24:59;;;;;;;;;;;6.90;99.90;;;;;;5066324;28;20357;-67
2023/12/15 12:27:30;;;;;;;;;;;6.90;99.90;;;;;;5064830;28;20003;-67
2023/12/15 12:29:56;;;;;;;;;;;6.90;99.90;;;;;;5065147;28;19976;-68
2023/12/15 12:32:23;;;;;;;;;;;6.90;99.90;;;;;;5065617;28;20000;-67
2023/12/15 12:34:50;;;;;;;;;;;6.90;99.90;;;;;;5067380;28;20518;-66
2023/12/15 12:37:18;;;;;;;;;;;6.90;99.90;;;;;;5065634;28;19999;-67
2023/12/15 12:39:45;;;;;;;;;;;6.90;99.90;;;;;;5066606;28;19976;-67
2023/12/15 12:42:12;;;;;;;;;;;6.90;99.90;;;;;;5065903;28;20527;-65
2023/12/15 12:44:39;;;;;;;;;;;6.90;99.90;;;;;;5064438;28;19979;-67
2023/12/15 12:47:05;;;;;;;;;;;6.90;99.90;;;;;;5066387;28;19995;-66
2023/12/15 12:49:32;;;;;;;;;;;6.90;99.90;;;;;;5065204;28;20036;-67
2023/12/15 12:51:59;;;;;;;;;;;6.90;99.90;;;;;;5066190;28;19979;-67
2023/12/15 12:54:26;;;;;;;;;;;6.90;99.90;;;;;;5065042;28;20002;-68
2023/12/15 12:56:53;;;;;;;;;;;7.00;99.90;;;;;;5065486;28;19979;-67
2023/12/15 12:59:20;;;;;;;;;;;6.90;99.90;;;;;;5064428;28;20000;-67
2023/12/15 13:01:46;;;;;;;;;;;7.00;99.90;;;;;;5065234;28;19991;-68
2023/12/15 13:04:13;;;;;;;;;;;6.90;99.90;;;;;;5067542;28;19991;-67
2023/12/15 13:06:40;;;;;;;;;;;7.00;99.90;;;;;;5064198;28;19991;-67
2023/12/15 13:09:06;;;;;;;;;;;6.90;99.90;;;;;;5064994;28;20046;-67
2023/12/15 13:11:34;;;;;;;;;;;6.90;99.90;;;;;;5064838;28;20415;-68
2023/12/15 13:14:01;;;;;;;;;;;7.00;99.90;;;;;;5062604;28;20287;-67
2023/12/15 13:16:28;;;;;;;;;;;7.00;99.90;;;;;;5063539;28;20002;-67
2023/12/15 13:18:54;;;;;;;;;;;7.00;99.90;;;;;;5065661;28;19996;-68
2023/12/15 13:21:21;;;;;;;;;;;7.00;99.90;;;;;;5063858;28;19986;-67
2023/12/15 13:23:47;;;;;;;;;;;7.00;99.90;;;;;;5065210;28;20021;-67
2023/12/15 13:26:14;;;;;;;;;;;7.00;99.90;;;;;;5066426;28;20776;-67
2023/12/15 13:28:42;;;;;;;;;;;6.90;99.90;;;;;;5065253;28;19991;-67
2023/12/15 13:31:09;;;;;;;;;;;7.00;99.90;;;;;;5068406;28;20008;-68
2023/12/15 13:33:36;;;;;;;;;;;7.00;99.90;;;;;;5070244;28;20646;-68
2023/12/15 13:36:03;;;;;;;;;;;7.00;99.90;;;;;;5070584;28;19987;-68
2023/12/15 13:38:29;;;;;;;;;;;7.00;99.90;;;;;;5067255;28;20424;-67
2023/12/15 13:40:57;;;;;;;;;;;7.00;99.90;;;;;;5070155;28;19983;-67
2023/12/15 13:43:24;;;;;;;;;;;7.00;99.90;;;;;;5068168;28;20082;-67
2023/12/15 13:45:53;;;;;;;;;;;7.00;99.90;;;;;;5067340;28;20036;-68
2023/12/15 13:48:20;;;;;;;;;;;6.90;99.90;;;;;;5069148;28;20010;-68
2023/12/15 13:50:46;;;;;;;;;;;7.00;99.90;;;;;;5068352;28;20651;-68
2023/12/15 13:53:13;;;;;;;;;;;7.00;99.90;;;;;;5068691;28;20356;-67
2023/12/15 13:55:40;;;;;;;;;;;7.00;99.90;;;;;;5069350;28;19979;-67
2023/12/15 13:58:06;;;;;;;;;;;6.90;99.90;;;;;;5069076;28;19995;-67
2023/12/15 14:00:33;;;;;;;;;;;7.00;99.90;;;;;;5067048;28;20006;-67
2023/12/15 14:03:01;;;;;;;;;;;7.00;99.90;;;;;;5069860;28;20399;-68
2023/12/15 14:05:27;;;;;;;;;;;7.00;99.90;;;;;;5069366;28;19979;-68
2023/12/15 14:07:54;;;;;;;;;;;7.00;99.90;;;;;;5069996;28;19995;-67
2023/12/15 14:10:20;;;;;;;;;;;7.00;99.90;;;;;;5067646;28;20534;-68
2023/12/15 14:12:47;;;;;;;;;;;7.00;99.90;;;;;;5069504;28;19983;-68
2023/12/15 14:15:14;;;;;;;;;;;7.00;99.90;;;;;;5065511;28;20425;-67
2023/12/15 14:17:40;;;;;;;;;;;7.00;99.90;;;;;;5068352;28;20041;-67
2023/12/15 14:20:09;;;;;;;;;;;7.00;99.90;;;;;;5068250;28;20036;-67
2023/12/15 14:22:36;;;;;;;;;;;6.90;99.90;;;;;;5067877;28;20148;-68
2023/12/15 14:25:04;;;;;;;;;;;7.00;99.90;;;;;;5069991;28;20025;-67
2023/12/15 14:27:32;;;;;;;;;;;7.00;99.90;;;;;;5069022;28;20003;-67
2023/12/15 14:29:58;;;;;;;;;;;7.00;99.90;;;;;;5068479;28;19976;-68